Scroll down
FLIGHT INFORMATION
Lufthansa

DLH11J

At Arrival Gate

LEPA
 EDDF
DATE: 2021-02-02
GATE: G12
GATE DEPARTURE: 14:42
TAKEOFF: 14:51
DATE: 2021-02-02
GATE:  -
LANDING: 16:43
GATE ARRIVAL: 16:49
FLIGHT DATA
Crew: 
Speed: 
917 kph
Altitude: 
38,015 ft
Stage Length: 
1,252.1 km
Block Time: 
2.1 hrs
Flight Time: 
1.9 hrs
Fuel Used: 
11,988 kg
Cleared Route: LEPA PITUX XURAL PTCNB MHN MEROS LAPIT CHELY LUMAS MEBEL NETUP TURIL MAXIR LUSOL BODRU OKTET IRMAR BLONA KINES VANAS MOBLO UBIMA MOLUS SOSAL TELNO KORED KONOL BERSU SUREP DITON ZUE SONOM LADOL EMPAX NELLI KOVAN KISEK XINLA XORBO ADNIS SPESA CHA DF606 DF610 DF611 DF612 DF613 DF614 DF615 DF616 DF626 RW25L
TRACK DATA
50,000 ft 1,000 kts
AIRCRAFT INFO AND CUMULATIVE STATS
Aircraft Type: 
B77L
Registration: 
SELCAL: 
MSN/LN: 
0 / 1
Operator: 
Total Flights: 
2
Total Block Time: 
3.9 hrs
Total Flight Time: 
3.5 hrs
Total Fuel Used: 
22,883 kg
DATALINK LOG | Newest first | Current as of: 2022-10-05 21:13:53
LABEL SEQUENCE CONTENT Dn/Up
QD504416:49 19.8▼ Dn
QC444116:43▼ Dn
2U1342EDDF 021520Z 23004KT 6000 FEW002 BKN005 BKN018 09/08 Q1000 TEMPO 3500 -DZ▲ Up
2S1409EDDF▼ Dn
2U0526EDDF 021450Z 24005KT 9999 FEW002 BKN005 09/09 Q1000 TEMPO 4000 -DZ▲ Up
2S0705EDDF▼ Dn
QB525214:51▼ Dn
QA444514:42 46.3▼ Dn
2U2300LEPA 021400Z 25009KT 9999 FEW020 18/13 Q1015 NOSIG▲ Up
2S2428LEPA▼ Dn
A32337NO MATCHING FLIGHT DATA AVAILABLE FROM ANSP▲ Up
B32327LEPA EDDF LEPA A ▼ Dn
Q02125[LINK ACK]▲ Up
Q02125[LINK TEST]▼ Dn


AIRCRAFT HISTORY
FLIGHT DATE FLIGHT NO. ORIGIN DESTINATION CLEARED ROUTE BLOCK TIME FLIGHT TIME FUEL USED PILOT
2021-02-02DLH11JLEPA EDDF LEPA PITUX XURAL PTCNB MHN MEROS LAPIT CHELY LUMAS MEBEL NETUP TURIL MAXIR LUSOL BODRU OKTET IRMAR BLONA KINES VANAS MOBLO UBIMA MOLUS SOSAL TELNO KORED KONOL BERSU SUREP DITON ZUE SONOM LADOL EMPAX NELLI KOVAN KISEK XINLA XORBO ADNIS SPESA CHA DF606 DF610 DF611 DF612 DF613 DF614 DF615 DF616 DF626 RW25L2.1 hrs1.9 hrs26,430 lbEmanuel Hagen
2021-02-02DLH7KEDDF LEPA EDDF RID ANEKI NEKLO BADLI PABLA HERBI MOPAN OLBEN LUTIX BENOT NEMOS GVA BALSI KOTIT RETNO DOTIG GIROL TUPOX MTG DIVKO VATIR PIVUS MAROT VERSO LUNIK D357T CDP RW24L1.8 hrs1.6 hrs24,019 lbEmanuel Hagen